sensor_id;sensor_type;location;lat;lon;timestamp;P1;durP1;ratioP1;P2;durP2;ratioP2
16468;SDS011;8345;50.902;6.956;2022-10-23T00:00:24;6.50;;;4.17;;
16468;SDS011;8345;50.902;6.956;2022-10-23T00:02:51;7.30;;;3.93;;
16468;SDS011;8345;50.902;6.956;2022-10-23T00:05:19;6.17;;;4.07;;
16468;SDS011;8345;50.902;6.956;2022-10-23T00:07:48;8.20;;;3.87;;
16468;SDS011;8345;50.902;6.956;2022-10-23T00:10:15;6.67;;;4.03;;
16468;SDS011;8345;50.902;6.956;2022-10-23T00:12:44;7.03;;;3.90;;
16468;SDS011;8345;50.902;6.956;2022-10-23T00:15:11;6.67;;;3.70;;
16468;SDS011;8345;50.902;6.956;2022-10-23T00:17:38;7.83;;;3.50;;
16468;SDS011;8345;50.902;6.956;2022-10-23T00:20:06;6.20;;;3.73;;
16468;SDS011;8345;50.902;6.956;2022-10-23T00:22:34;7.10;;;4.27;;
16468;SDS011;8345;50.902;6.956;2022-10-23T00:25:01;7.17;;;4.13;;
16468;SDS011;8345;50.902;6.956;2022-10-23T00:27:28;8.23;;;3.60;;
16468;SDS011;8345;50.902;6.956;2022-10-23T00:29:57;7.53;;;3.77;;
16468;SDS011;8345;50.902;6.956;2022-10-23T00:32:24;11.17;;;3.90;;
16468;SDS011;8345;50.902;6.956;2022-10-23T00:34:51;11.87;;;4.07;;
16468;SDS011;8345;50.902;6.956;2022-10-23T00:37:19;6.50;;;3.67;;
16468;SDS011;8345;50.902;6.956;2022-10-23T00:39:46;8.07;;;3.70;;
16468;SDS011;8345;50.902;6.956;2022-10-23T00:42:14;6.40;;;3.20;;
16468;SDS011;8345;50.902;6.956;2022-10-23T00:47:29;7.73;;;3.63;;
16468;SDS011;8345;50.902;6.956;2022-10-23T00:49:56;5.70;;;3.57;;
16468;SDS011;8345;50.902;6.956;2022-10-23T00:52:25;6.80;;;3.83;;
16468;SDS011;8345;50.902;6.956;2022-10-23T00:54:53;7.27;;;4.13;;
16468;SDS011;8345;50.902;6.956;2022-10-23T00:57:20;6.17;;;3.80;;
16468;SDS011;8345;50.902;6.956;2022-10-23T00:59:47;12.90;;;3.87;;
16468;SDS011;8345;50.902;6.956;2022-10-23T01:02:14;6.00;;;3.83;;
16468;SDS011;8345;50.902;6.956;2022-10-23T01:04:43;8.00;;;3.93;;
16468;SDS011;8345;50.902;6.956;2022-10-23T01:07:11;6.83;;;3.73;;
16468;SDS011;8345;50.902;6.956;2022-10-23T01:09:42;5.77;;;3.80;;
16468;SDS011;8345;50.902;6.956;2022-10-23T01:12:14;6.93;;;3.60;;
16468;SDS011;8345;50.902;6.956;2022-10-23T01:14:43;6.90;;;3.20;;
16468;SDS011;8345;50.902;6.956;2022-10-23T01:17:15;6.33;;;3.47;;
16468;SDS011;8345;50.902;6.956;2022-10-23T01:19:47;5.10;;;3.33;;
16468;SDS011;8345;50.902;6.956;2022-10-23T01:22:25;4.63;;;3.30;;
16468;SDS011;8345;50.902;6.956;2022-10-23T01:24:55;5.77;;;3.20;;
16468;SDS011;8345;50.902;6.956;2022-10-23T01:27:25;5.07;;;3.13;;
16468;SDS011;8345;50.902;6.956;2022-10-23T01:29:58;6.87;;;3.70;;
16468;SDS011;8345;50.902;6.956;2022-10-23T01:32:29;5.23;;;2.90;;
16468;SDS011;8345;50.902;6.956;2022-10-23T01:34:59;5.10;;;3.80;;
16468;SDS011;8345;50.902;6.956;2022-10-23T01:37:28;7.00;;;3.40;;
16468;SDS011;8345;50.902;6.956;2022-10-23T01:39:56;3.73;;;3.07;;
16468;SDS011;8345;50.902;6.956;2022-10-23T01:42:28;8.40;;;3.37;;
16468;SDS011;8345;50.902;6.956;2022-10-23T01:44:57;6.00;;;3.53;;
16468;SDS011;8345;50.902;6.956;2022-10-23T01:47:26;7.20;;;3.13;;
16468;SDS011;8345;50.902;6.956;2022-10-23T01:49:54;5.70;;;3.60;;
16468;SDS011;8345;50.902;6.956;2022-10-23T01:52:22;5.23;;;3.47;;
16468;SDS011;8345;50.902;6.956;2022-10-23T01:54:49;4.00;;;3.23;;
16468;SDS011;8345;50.902;6.956;2022-10-23T01:57:17;4.27;;;3.00;;
16468;SDS011;8345;50.902;6.956;2022-10-23T01:59:48;5.60;;;3.07;;
16468;SDS011;8345;50.902;6.956;2022-10-23T02:02:17;6.53;;;3.10;;
16468;SDS011;8345;50.902;6.956;2022-10-23T02:04:45;4.27;;;3.33;;
16468;SDS011;8345;50.902;6.956;2022-10-23T02:07:14;4.70;;;3.07;;
16468;SDS011;8345;50.902;6.956;2022-10-23T02:09:41;6.10;;;3.30;;
16468;SDS011;8345;50.902;6.956;2022-10-23T02:12:09;6.37;;;3.47;;
16468;SDS011;8345;50.902;6.956;2022-10-23T02:14:41;5.97;;;3.40;;
16468;SDS011;8345;50.902;6.956;2022-10-23T02:17:13;7.50;;;3.07;;
16468;SDS011;8345;50.902;6.956;2022-10-23T02:19:43;4.83;;;3.13;;
16468;SDS011;8345;50.902;6.956;2022-10-23T02:22:13;4.00;;;2.80;;
16468;SDS011;8345;50.902;6.956;2022-10-23T02:24:42;5.43;;;3.23;;
16468;SDS011;8345;50.902;6.956;2022-10-23T02:27:11;6.47;;;2.80;;
16468;SDS011;8345;50.902;6.956;2022-10-23T02:29:40;7.40;;;3.20;;
16468;SDS011;8345;50.902;6.956;2022-10-23T02:32:09;4.77;;;2.67;;
16468;SDS011;8345;50.902;6.956;2022-10-23T02:34:39;4.80;;;2.93;;
16468;SDS011;8345;50.902;6.956;2022-10-23T02:37:06;7.60;;;3.10;;
16468;SDS011;8345;50.902;6.956;2022-10-23T02:39:33;4.23;;;3.13;;
16468;SDS011;8345;50.902;6.956;2022-10-23T02:42:02;4.47;;;3.30;;
16468;SDS011;8345;50.902;6.956;2022-10-23T02:44:34;5.90;;;3.00;;
16468;SDS011;8345;50.902;6.956;2022-10-23T02:47:09;6.73;;;3.27;;
16468;SDS011;8345;50.902;6.956;2022-10-23T02:49:41;7.93;;;3.00;;
16468;SDS011;8345;50.902;6.956;2022-10-23T02:52:11;7.87;;;3.60;;
16468;SDS011;8345;50.902;6.956;2022-10-23T02:54:42;8.17;;;3.30;;
16468;SDS011;8345;50.902;6.956;2022-10-23T02:57:13;5.70;;;3.10;;
16468;SDS011;8345;50.902;6.956;2022-10-23T02:59:42;4.43;;;3.10;;
16468;SDS011;8345;50.902;6.956;2022-10-23T03:02:13;5.23;;;3.50;;
16468;SDS011;8345;50.902;6.956;2022-10-23T03:04:43;4.67;;;3.27;;
16468;SDS011;8345;50.902;6.956;2022-10-23T03:07:11;4.00;;;2.77;;
16468;SDS011;8345;50.902;6.956;2022-10-23T03:09:39;7.20;;;3.40;;
16468;SDS011;8345;50.902;6.956;2022-10-23T03:12:06;5.13;;;3.00;;
16468;SDS011;8345;50.902;6.956;2022-10-23T03:14:34;5.93;;;2.63;;
16468;SDS011;8345;50.902;6.956;2022-10-23T03:17:01;5.20;;;2.60;;
16468;SDS011;8345;50.902;6.956;2022-10-23T03:19:28;5.30;;;2.77;;
16468;SDS011;8345;50.902;6.956;2022-10-23T03:21:57;3.63;;;3.20;;
16468;SDS011;8345;50.902;6.956;2022-10-23T03:24:24;8.87;;;3.97;;
16468;SDS011;8345;50.902;6.956;2022-10-23T03:26:51;6.73;;;3.00;;
16468;SDS011;8345;50.902;6.956;2022-10-23T03:29:18;6.47;;;3.30;;
16468;SDS011;8345;50.902;6.956;2022-10-23T03:31:45;8.93;;;3.07;;
16468;SDS011;8345;50.902;6.956;2022-10-23T03:34:13;6.47;;;3.30;;
16468;SDS011;8345;50.902;6.956;2022-10-23T03:36:40;7.80;;;2.97;;
16468;SDS011;8345;50.902;6.956;2022-10-23T03:39:08;6.17;;;2.90;;
16468;SDS011;8345;50.902;6.956;2022-10-23T03:41:36;4.40;;;2.60;;
16468;SDS011;8345;50.902;6.956;2022-10-23T03:44:03;6.23;;;2.90;;
16468;SDS011;8345;50.902;6.956;2022-10-23T03:46:30;5.23;;;2.80;;
16468;SDS011;8345;50.902;6.956;2022-10-23T03:48:57;5.10;;;3.10;;
16468;SDS011;8345;50.902;6.956;2022-10-23T03:51:24;4.17;;;2.23;;
16468;SDS011;8345;50.902;6.956;2022-10-23T03:53:51;6.87;;;2.90;;
16468;SDS011;8345;50.902;6.956;2022-10-23T03:56:20;8.90;;;2.90;;
16468;SDS011;8345;50.902;6.956;2022-10-23T03:58:47;5.03;;;2.87;;
16468;SDS011;8345;50.902;6.956;2022-10-23T04:01:14;4.67;;;2.57;;
16468;SDS011;8345;50.902;6.956;2022-10-23T04:03:41;4.50;;;2.40;;
16468;SDS011;8345;50.902;6.956;2022-10-23T04:06:09;3.93;;;2.40;;
16468;SDS011;8345;50.902;6.956;2022-10-23T04:08:36;7.90;;;2.70;;
16468;SDS011;8345;50.902;6.956;2022-10-23T04:11:03;5.57;;;2.60;;
16468;SDS011;8345;50.902;6.956;2022-10-23T04:13:32;2.80;;;2.20;;
16468;SDS011;8345;50.902;6.956;2022-10-23T04:15:59;5.90;;;2.90;;
16468;SDS011;8345;50.902;6.956;2022-10-23T04:18:26;4.10;;;2.80;;
16468;SDS011;8345;50.902;6.956;2022-10-23T04:20:53;5.23;;;2.90;;
16468;SDS011;8345;50.902;6.956;2022-10-23T04:23:20;8.37;;;2.90;;
16468;SDS011;8345;50.902;6.956;2022-10-23T04:25:48;5.97;;;2.87;;
16468;SDS011;8345;50.902;6.956;2022-10-23T04:28:15;6.83;;;2.80;;
16468;SDS011;8345;50.902;6.956;2022-10-23T04:30:43;8.17;;;2.53;;
16468;SDS011;8345;50.902;6.956;2022-10-23T04:33:10;5.73;;;2.60;;
16468;SDS011;8345;50.902;6.956;2022-10-23T04:35:37;4.63;;;2.30;;
16468;SDS011;8345;50.902;6.956;2022-10-23T04:38:05;5.77;;;2.47;;
16468;SDS011;8345;50.902;6.956;2022-10-23T04:40:32;6.07;;;2.87;;
16468;SDS011;8345;50.902;6.956;2022-10-23T04:42:59;3.90;;;2.87;;
16468;SDS011;8345;50.902;6.956;2022-10-23T04:45:26;6.17;;;2.97;;
16468;SDS011;8345;50.902;6.956;2022-10-23T04:47:55;5.00;;;2.57;;
16468;SDS011;8345;50.902;6.956;2022-10-23T04:50:22;8.57;;;2.73;;
16468;SDS011;8345;50.902;6.956;2022-10-23T04:52:52;6.00;;;2.47;;
16468;SDS011;8345;50.902;6.956;2022-10-23T04:55:20;4.17;;;2.77;;
16468;SDS011;8345;50.902;6.956;2022-10-23T04:57:49;5.93;;;2.50;;
16468;SDS011;8345;50.902;6.956;2022-10-23T05:00:16;7.37;;;2.83;;
16468;SDS011;8345;50.902;6.956;2022-10-23T05:02:44;7.17;;;2.97;;
16468;SDS011;8345;50.902;6.956;2022-10-23T05:05:13;6.23;;;2.70;;
16468;SDS011;8345;50.902;6.956;2022-10-23T05:07:40;5.03;;;2.43;;
16468;SDS011;8345;50.902;6.956;2022-10-23T05:10:07;5.10;;;2.53;;
16468;SDS011;8345;50.902;6.956;2022-10-23T05:12:34;3.43;;;2.63;;
16468;SDS011;8345;50.902;6.956;2022-10-23T05:15:02;5.93;;;2.77;;
16468;SDS011;8345;50.902;6.956;2022-10-23T05:17:30;6.03;;;2.73;;
16468;SDS011;8345;50.902;6.956;2022-10-23T05:19:58;5.87;;;2.93;;
16468;SDS011;8345;50.902;6.956;2022-10-23T05:22:29;4.33;;;2.53;;
16468;SDS011;8345;50.902;6.956;2022-10-23T05:24:58;3.60;;;2.37;;
16468;SDS011;8345;50.902;6.956;2022-10-23T05:27:26;3.90;;;2.37;;
16468;SDS011;8345;50.902;6.956;2022-10-23T05:29:53;4.23;;;2.70;;
16468;SDS011;8345;50.902;6.956;2022-10-23T05:32:20;4.30;;;2.53;;
16468;SDS011;8345;50.902;6.956;2022-10-23T05:34:48;5.60;;;2.90;;
16468;SDS011;8345;50.902;6.956;2022-10-23T05:37:15;4.63;;;2.87;;
16468;SDS011;8345;50.902;6.956;2022-10-23T05:39:44;7.33;;;2.63;;
16468;SDS011;8345;50.902;6.956;2022-10-23T05:42:11;4.50;;;2.47;;
16468;SDS011;8345;50.902;6.956;2022-10-23T05:44:38;6.83;;;2.43;;
16468;SDS011;8345;50.902;6.956;2022-10-23T05:47:05;4.33;;;2.60;;
16468;SDS011;8345;50.902;6.956;2022-10-23T05:49:33;6.43;;;2.37;;
16468;SDS011;8345;50.902;6.956;2022-10-23T05:52:00;4.73;;;2.30;;
16468;SDS011;8345;50.902;6.956;2022-10-23T05:54:27;2.70;;;2.20;;
16468;SDS011;8345;50.902;6.956;2022-10-23T05:56:55;2.73;;;2.40;;
16468;SDS011;8345;50.902;6.956;2022-10-23T05:59:23;3.90;;;2.47;;
16468;SDS011;8345;50.902;6.956;2022-10-23T06:01:50;7.03;;;2.77;;
16468;SDS011;8345;50.902;6.956;2022-10-23T06:04:17;3.63;;;2.23;;
16468;SDS011;8345;50.902;6.956;2022-10-23T06:06:44;4.67;;;2.37;;
16468;SDS011;8345;50.902;6.956;2022-10-23T06:09:12;5.43;;;2.57;;
16468;SDS011;8345;50.902;6.956;2022-10-23T06:11:39;4.30;;;2.40;;
16468;SDS011;8345;50.902;6.956;2022-10-23T06:14:08;3.63;;;2.57;;
16468;SDS011;8345;50.902;6.956;2022-10-23T06:16:35;6.23;;;2.50;;
16468;SDS011;8345;50.902;6.956;2022-10-23T06:19:02;3.27;;;2.60;;
16468;SDS011;8345;50.902;6.956;2022-10-23T06:21:29;6.77;;;2.60;;
16468;SDS011;8345;50.902;6.956;2022-10-23T06:23:56;2.73;;;2.20;;
16468;SDS011;8345;50.902;6.956;2022-10-23T06:26:24;4.87;;;2.50;;
16468;SDS011;8345;50.902;6.956;2022-10-23T06:28:51;4.33;;;2.60;;
16468;SDS011;8345;50.902;6.956;2022-10-23T06:31:19;6.13;;;2.70;;
16468;SDS011;8345;50.902;6.956;2022-10-23T06:33:50;5.63;;;2.37;;
16468;SDS011;8345;50.902;6.956;2022-10-23T06:36:17;5.33;;;2.70;;
16468;SDS011;8345;50.902;6.956;2022-10-23T06:38:45;4.70;;;2.37;;
16468;SDS011;8345;50.902;6.956;2022-10-23T06:41:14;3.77;;;2.40;;
16468;SDS011;8345;50.902;6.956;2022-10-23T06:43:41;5.07;;;2.50;;
16468;SDS011;8345;50.902;6.956;2022-10-23T06:46:08;5.97;;;2.30;;
16468;SDS011;8345;50.902;6.956;2022-10-23T06:48:37;3.77;;;2.83;;
16468;SDS011;8345;50.902;6.956;2022-10-23T06:51:05;6.50;;;2.80;;
16468;SDS011;8345;50.902;6.956;2022-10-23T06:53:33;3.77;;;2.27;;
16468;SDS011;8345;50.902;6.956;2022-10-23T06:56:01;4.23;;;2.43;;
16468;SDS011;8345;50.902;6.956;2022-10-23T06:58:29;5.63;;;2.80;;
16468;SDS011;8345;50.902;6.956;2022-10-23T07:00:58;5.03;;;2.50;;
16468;SDS011;8345;50.902;6.956;2022-10-23T07:03:26;4.03;;;2.57;;
16468;SDS011;8345;50.902;6.956;2022-10-23T07:05:54;4.83;;;2.60;;
16468;SDS011;8345;50.902;6.956;2022-10-23T07:08:21;5.13;;;2.67;;
16468;SDS011;8345;50.902;6.956;2022-10-23T07:10:48;3.00;;;2.30;;
16468;SDS011;8345;50.902;6.956;2022-10-23T07:13:16;4.90;;;2.40;;
16468;SDS011;8345;50.902;6.956;2022-10-23T07:15:43;5.27;;;2.60;;
16468;SDS011;8345;50.902;6.956;2022-10-23T07:18:10;3.40;;;2.60;;
16468;SDS011;8345;50.902;6.956;2022-10-23T07:20:39;4.47;;;2.70;;
16468;SDS011;8345;50.902;6.956;2022-10-23T07:23:07;3.93;;;2.67;;
16468;SDS011;8345;50.902;6.956;2022-10-23T07:25:35;3.87;;;2.80;;
16468;SDS011;8345;50.902;6.956;2022-10-23T07:28:02;5.13;;;2.33;;
16468;SDS011;8345;50.902;6.956;2022-10-23T07:30:30;2.73;;;2.40;;
16468;SDS011;8345;50.902;6.956;2022-10-23T07:32:57;4.93;;;2.43;;
16468;SDS011;8345;50.902;6.956;2022-10-23T07:35:24;8.47;;;2.53;;
16468;SDS011;8345;50.902;6.956;2022-10-23T07:37:51;6.67;;;2.83;;
16468;SDS011;8345;50.902;6.956;2022-10-23T07:40:20;3.27;;;2.30;;
16468;SDS011;8345;50.902;6.956;2022-10-23T07:42:47;8.00;;;2.43;;
16468;SDS011;8345;50.902;6.956;2022-10-23T07:45:14;3.20;;;2.50;;
16468;SDS011;8345;50.902;6.956;2022-10-23T07:47:41;6.27;;;2.63;;
16468;SDS011;8345;50.902;6.956;2022-10-23T07:50:08;4.37;;;2.30;;
16468;SDS011;8345;50.902;6.956;2022-10-23T07:52:36;5.37;;;2.83;;
16468;SDS011;8345;50.902;6.956;2022-10-23T07:55:03;4.83;;;2.57;;
16468;SDS011;8345;50.902;6.956;2022-10-23T07:57:32;6.77;;;2.50;;
16468;SDS011;8345;50.902;6.956;2022-10-23T07:59:59;4.70;;;2.30;;
16468;SDS011;8345;50.902;6.956;2022-10-23T08:02:26;5.63;;;2.53;;
16468;SDS011;8345;50.902;6.956;2022-10-23T08:04:53;2.67;;;2.30;;
16468;SDS011;8345;50.902;6.956;2022-10-23T08:07:20;3.70;;;2.20;;
16468;SDS011;8345;50.902;6.956;2022-10-23T08:09:48;4.70;;;2.53;;
16468;SDS011;8345;50.902;6.956;2022-10-23T08:12:15;3.67;;;2.10;;
16468;SDS011;8345;50.902;6.956;2022-10-23T08:14:44;4.63;;;2.20;;
16468;SDS011;8345;50.902;6.956;2022-10-23T08:17:11;4.50;;;2.50;;
16468;SDS011;8345;50.902;6.956;2022-10-23T08:19:38;6.43;;;2.63;;
16468;SDS011;8345;50.902;6.956;2022-10-23T08:22:10;3.97;;;2.23;;
16468;SDS011;8345;50.902;6.956;2022-10-23T08:24:37;5.57;;;2.60;;
16468;SDS011;8345;50.902;6.956;2022-10-23T08:27:04;5.07;;;2.60;;
16468;SDS011;8345;50.902;6.956;2022-10-23T08:29:32;7.37;;;2.67;;
16468;SDS011;8345;50.902;6.956;2022-10-23T08:32:00;3.63;;;2.20;;
16468;SDS011;8345;50.902;6.956;2022-10-23T08:34:27;4.03;;;2.47;;
16468;SDS011;8345;50.902;6.956;2022-10-23T08:36:55;3.83;;;2.30;;
16468;SDS011;8345;50.902;6.956;2022-10-23T08:39:22;7.50;;;2.50;;
16468;SDS011;8345;50.902;6.956;2022-10-23T08:41:50;3.40;;;2.43;;
16468;SDS011;8345;50.902;6.956;2022-10-23T08:44:19;6.77;;;2.37;;
16468;SDS011;8345;50.902;6.956;2022-10-23T08:46:48;3.43;;;2.13;;
16468;SDS011;8345;50.902;6.956;2022-10-23T08:49:25;4.30;;;2.63;;
16468;SDS011;8345;50.902;6.956;2022-10-23T08:51:56;3.13;;;2.50;;
16468;SDS011;8345;50.902;6.956;2022-10-23T08:54:25;7.93;;;2.73;;
16468;SDS011;8345;50.902;6.956;2022-10-23T08:56:55;3.03;;;2.33;;
16468;SDS011;8345;50.902;6.956;2022-10-23T08:59:26;6.90;;;2.53;;
16468;SDS011;8345;50.902;6.956;2022-10-23T09:01:57;4.23;;;2.40;;
16468;SDS011;8345;50.902;6.956;2022-10-23T09:04:27;6.97;;;2.60;;
16468;SDS011;8345;50.902;6.956;2022-10-23T09:06:56;4.70;;;2.40;;
16468;SDS011;8345;50.902;6.956;2022-10-23T09:09:35;5.47;;;2.67;;
16468;SDS011;8345;50.902;6.956;2022-10-23T09:12:08;4.77;;;2.47;;
16468;SDS011;8345;50.902;6.956;2022-10-23T09:14:43;4.40;;;2.20;;
16468;SDS011;8345;50.902;6.956;2022-10-23T09:17:15;3.60;;;2.30;;
16468;SDS011;8345;50.902;6.956;2022-10-23T09:19:45;7.53;;;2.60;;
16468;SDS011;8345;50.902;6.956;2022-10-23T09:22:12;4.20;;;2.20;;
16468;SDS011;8345;50.902;6.956;2022-10-23T09:24:41;2.87;;;2.20;;
16468;SDS011;8345;50.902;6.956;2022-10-23T09:27:09;2.43;;;1.93;;
16468;SDS011;8345;50.902;6.956;2022-10-23T09:29:45;4.87;;;2.27;;
16468;SDS011;8345;50.902;6.956;2022-10-23T09:32:13;4.13;;;2.27;;
16468;SDS011;8345;50.902;6.956;2022-10-23T09:34:50;3.13;;;2.17;;
16468;SDS011;8345;50.902;6.956;2022-10-23T09:37:20;3.70;;;2.60;;
16468;SDS011;8345;50.902;6.956;2022-10-23T09:39:48;3.93;;;2.50;;
16468;SDS011;8345;50.902;6.956;2022-10-23T09:42:19;4.40;;;2.30;;
16468;SDS011;8345;50.902;6.956;2022-10-23T09:44:48;3.17;;;2.33;;
16468;SDS011;8345;50.902;6.956;2022-10-23T09:47:17;3.90;;;2.10;;
16468;SDS011;8345;50.902;6.956;2022-10-23T09:49:46;7.37;;;2.27;;
16468;SDS011;8345;50.902;6.956;2022-10-23T09:52:27;6.60;;;2.50;;
16468;SDS011;8345;50.902;6.956;2022-10-23T09:54:55;3.43;;;2.10;;
16468;SDS011;8345;50.902;6.956;2022-10-23T09:57:25;4.47;;;2.43;;
16468;SDS011;8345;50.902;6.956;2022-10-23T09:59:54;5.10;;;2.50;;
16468;SDS011;8345;50.902;6.956;2022-10-23T10:02:26;5.33;;;2.43;;
16468;SDS011;8345;50.902;6.956;2022-10-23T10:04:53;3.33;;;2.40;;
16468;SDS011;8345;50.902;6.956;2022-10-23T10:07:21;4.70;;;2.17;;
16468;SDS011;8345;50.902;6.956;2022-10-23T10:09:50;5.47;;;2.00;;
16468;SDS011;8345;50.902;6.956;2022-10-23T10:12:21;4.87;;;2.03;;
16468;SDS011;8345;50.902;6.956;2022-10-23T10:14:54;4.10;;;2.10;;
16468;SDS011;8345;50.902;6.956;2022-10-23T10:17:29;3.53;;;2.23;;
16468;SDS011;8345;50.902;6.956;2022-10-23T10:20:02;4.83;;;1.83;;
16468;SDS011;8345;50.902;6.956;2022-10-23T10:22:34;4.47;;;1.80;;
16468;SDS011;8345;50.902;6.956;2022-10-23T10:25:08;3.33;;;1.87;;
16468;SDS011;8345;50.902;6.956;2022-10-23T10:27:41;3.27;;;1.73;;
16468;SDS011;8345;50.902;6.956;2022-10-23T10:30:12;2.60;;;1.80;;
16468;SDS011;8345;50.902;6.956;2022-10-23T10:32:42;4.43;;;1.73;;
16468;SDS011;8345;50.902;6.956;2022-10-23T10:35:16;3.07;;;2.00;;
16468;SDS011;8345;50.902;6.956;2022-10-23T10:37:49;4.33;;;1.80;;
16468;SDS011;8345;50.902;6.956;2022-10-23T10:40:21;2.90;;;1.80;;
16468;SDS011;8345;50.902;6.956;2022-10-23T10:42:54;4.60;;;1.93;;
16468;SDS011;8345;50.902;6.956;2022-10-23T10:45:29;3.27;;;2.00;;
16468;SDS011;8345;50.902;6.956;2022-10-23T10:48:02;3.73;;;2.00;;
16468;SDS011;8345;50.902;6.956;2022-10-23T10:50:36;3.50;;;1.90;;
16468;SDS011;8345;50.902;6.956;2022-10-23T10:53:07;4.47;;;1.90;;
16468;SDS011;8345;50.902;6.956;2022-10-23T10:55:38;2.17;;;1.97;;
16468;SDS011;8345;50.902;6.956;2022-10-23T10:58:09;4.00;;;1.80;;
16468;SDS011;8345;50.902;6.956;2022-10-23T11:00:38;3.13;;;1.80;;
16468;SDS011;8345;50.902;6.956;2022-10-23T11:03:08;2.80;;;1.53;;
16468;SDS011;8345;50.902;6.956;2022-10-23T11:05:37;2.23;;;1.93;;
16468;SDS011;8345;50.902;6.956;2022-10-23T11:08:09;3.33;;;1.80;;
16468;SDS011;8345;50.902;6.956;2022-10-23T11:10:39;3.17;;;1.60;;
16468;SDS011;8345;50.902;6.956;2022-10-23T11:13:13;4.03;;;1.63;;
16468;SDS011;8345;50.902;6.956;2022-10-23T11:15:44;3.83;;;1.97;;
16468;SDS011;8345;50.902;6.956;2022-10-23T11:18:12;3.67;;;2.03;;
16468;SDS011;8345;50.902;6.956;2022-10-23T11:20:49;4.57;;;2.13;;
16468;SDS011;8345;50.902;6.956;2022-10-23T11:23:25;4.40;;;2.00;;
16468;SDS011;8345;50.902;6.956;2022-10-23T11:26:00;2.60;;;2.10;;
16468;SDS011;8345;50.902;6.956;2022-10-23T11:28:34;1.83;;;1.60;;
16468;SDS011;8345;50.902;6.956;2022-10-23T11:31:06;2.43;;;1.73;;
16468;SDS011;8345;50.902;6.956;2022-10-23T11:33:39;2.00;;;1.90;;
16468;SDS011;8345;50.902;6.956;2022-10-23T11:36:15;4.00;;;1.90;;
16468;SDS011;8345;50.902;6.956;2022-10-23T11:38:42;2.97;;;1.70;;
16468;SDS011;8345;50.902;6.956;2022-10-23T11:41:19;4.10;;;1.67;;
16468;SDS011;8345;50.902;6.956;2022-10-23T11:43:48;4.87;;;2.40;;
16468;SDS011;8345;50.902;6.956;2022-10-23T11:46:28;3.40;;;2.00;;
16468;SDS011;8345;50.902;6.956;2022-10-23T11:48:55;2.70;;;2.00;;
16468;SDS011;8345;50.902;6.956;2022-10-23T11:51:27;1.93;;;1.53;;
16468;SDS011;8345;50.902;6.956;2022-10-23T11:54:04;3.40;;;1.77;;
16468;SDS011;8345;50.902;6.956;2022-10-23T11:56:33;2.03;;;1.67;;
16468;SDS011;8345;50.902;6.956;2022-10-23T11:59:16;4.17;;;1.80;;
16468;SDS011;8345;50.902;6.956;2022-10-23T12:01:45;2.43;;;1.90;;
16468;SDS011;8345;50.902;6.956;2022-10-23T12:04:15;2.37;;;1.87;;
16468;SDS011;8345;50.902;6.956;2022-10-23T12:06:44;3.97;;;1.90;;
16468;SDS011;8345;50.902;6.956;2022-10-23T12:09:29;3.27;;;1.57;;
16468;SDS011;8345;50.902;6.956;2022-10-23T12:12:03;3.93;;;2.13;;
16468;SDS011;8345;50.902;6.956;2022-10-23T12:14:32;3.47;;;1.57;;
16468;SDS011;8345;50.902;6.956;2022-10-23T12:17:14;3.93;;;2.00;;
16468;SDS011;8345;50.902;6.956;2022-10-23T12:19:46;4.53;;;2.00;;
16468;SDS011;8345;50.902;6.956;2022-10-23T12:22:13;3.17;;;1.60;;
16468;SDS011;8345;50.902;6.956;2022-10-23T12:24:48;5.77;;;2.10;;
16468;SDS011;8345;50.902;6.956;2022-10-23T12:27:24;2.67;;;2.07;;
16468;SDS011;8345;50.902;6.956;2022-10-23T12:29:57;3.63;;;1.90;;
16468;SDS011;8345;50.902;6.956;2022-10-23T12:32:33;4.23;;;1.80;;
16468;SDS011;8345;50.902;6.956;2022-10-23T12:35:20;4.83;;;2.13;;
16468;SDS011;8345;50.902;6.956;2022-10-23T12:37:54;2.87;;;1.80;;
16468;SDS011;8345;50.902;6.956;2022-10-23T12:40:24;2.40;;;2.10;;
16468;SDS011;8345;50.902;6.956;2022-10-23T12:42:56;3.07;;;1.90;;
16468;SDS011;8345;50.902;6.956;2022-10-23T12:45:25;10.73;;;2.37;;
16468;SDS011;8345;50.902;6.956;2022-10-23T12:47:53;5.57;;;2.23;;
16468;SDS011;8345;50.902;6.956;2022-10-23T12:50:21;2.93;;;1.90;;
16468;SDS011;8345;50.902;6.956;2022-10-23T12:52:50;3.83;;;2.57;;
16468;SDS011;8345;50.902;6.956;2022-10-23T12:55:17;3.43;;;2.40;;
16468;SDS011;8345;50.902;6.956;2022-10-23T12:57:45;5.03;;;2.10;;
16468;SDS011;8345;50.902;6.956;2022-10-23T13:00:17;3.07;;;1.80;;
16468;SDS011;8345;50.902;6.956;2022-10-23T13:02:45;2.33;;;1.90;;
16468;SDS011;8345;50.902;6.956;2022-10-23T13:05:16;3.47;;;2.17;;
16468;SDS011;8345;50.902;6.956;2022-10-23T13:07:46;3.03;;;2.40;;
16468;SDS011;8345;50.902;6.956;2022-10-23T13:10:15;3.13;;;2.07;;
16468;SDS011;8345;50.902;6.956;2022-10-23T13:12:43;7.40;;;2.20;;
16468;SDS011;8345;50.902;6.956;2022-10-23T13:15:14;3.63;;;2.23;;
16468;SDS011;8345;50.902;6.956;2022-10-23T13:17:44;2.37;;;1.90;;
16468;SDS011;8345;50.902;6.956;2022-10-23T13:20:22;2.57;;;2.17;;
16468;SDS011;8345;50.902;6.956;2022-10-23T13:22:51;4.80;;;2.20;;
16468;SDS011;8345;50.902;6.956;2022-10-23T13:25:23;2.30;;;2.00;;
16468;SDS011;8345;50.902;6.956;2022-10-23T13:28:01;5.20;;;2.30;;
16468;SDS011;8345;50.902;6.956;2022-10-23T13:30:30;2.53;;;2.23;;
16468;SDS011;8345;50.902;6.956;2022-10-23T13:32:59;5.50;;;2.40;;
16468;SDS011;8345;50.902;6.956;2022-10-23T13:35:27;4.97;;;2.50;;
16468;SDS011;8345;50.902;6.956;2022-10-23T13:37:54;2.90;;;2.30;;
16468;SDS011;8345;50.902;6.956;2022-10-23T13:40:22;3.20;;;2.30;;
16468;SDS011;8345;50.902;6.956;2022-10-23T13:42:50;4.50;;;2.47;;
16468;SDS011;8345;50.902;6.956;2022-10-23T13:45:18;3.07;;;2.33;;
16468;SDS011;8345;50.902;6.956;2022-10-23T13:47:46;4.23;;;2.50;;
16468;SDS011;8345;50.902;6.956;2022-10-23T13:50:15;2.53;;;2.07;;
16468;SDS011;8345;50.902;6.956;2022-10-23T13:52:43;6.33;;;2.50;;
16468;SDS011;8345;50.902;6.956;2022-10-23T13:55:14;3.63;;;2.10;;
16468;SDS011;8345;50.902;6.956;2022-10-23T13:57:44;4.27;;;2.47;;
16468;SDS011;8345;50.902;6.956;2022-10-23T14:00:12;4.70;;;2.20;;
16468;SDS011;8345;50.902;6.956;2022-10-23T14:02:40;4.07;;;2.23;;
16468;SDS011;8345;50.902;6.956;2022-10-23T14:05:08;4.90;;;2.20;;
16468;SDS011;8345;50.902;6.956;2022-10-23T14:07:36;3.27;;;2.23;;
16468;SDS011;8345;50.902;6.956;2022-10-23T14:10:04;6.17;;;2.40;;
16468;SDS011;8345;50.902;6.956;2022-10-23T14:12:37;5.13;;;2.60;;
16468;SDS011;8345;50.902;6.956;2022-10-23T14:15:05;6.60;;;2.53;;
16468;SDS011;8345;50.902;6.956;2022-10-23T14:17:33;6.47;;;2.63;;
16468;SDS011;8345;50.902;6.956;2022-10-23T14:20:01;3.77;;;2.67;;
16468;SDS011;8345;50.902;6.956;2022-10-23T14:22:28;3.97;;;2.83;;
16468;SDS011;8345;50.902;6.956;2022-10-23T14:24:57;3.93;;;2.60;;
16468;SDS011;8345;50.902;6.956;2022-10-23T14:27:24;5.90;;;2.77;;
16468;SDS011;8345;50.902;6.956;2022-10-23T14:29:52;3.93;;;2.57;;
16468;SDS011;8345;50.902;6.956;2022-10-23T14:32:19;2.63;;;2.33;;
16468;SDS011;8345;50.902;6.956;2022-10-23T14:34:48;3.90;;;2.50;;
16468;SDS011;8345;50.902;6.956;2022-10-23T14:37:16;4.63;;;2.27;;
16468;SDS011;8345;50.902;6.956;2022-10-23T14:39:43;3.70;;;2.60;;
16468;SDS011;8345;50.902;6.956;2022-10-23T14:42:13;3.80;;;2.30;;
16468;SDS011;8345;50.902;6.956;2022-10-23T14:44:40;4.20;;;2.73;;
16468;SDS011;8345;50.902;6.956;2022-10-23T14:47:08;5.47;;;2.43;;
16468;SDS011;8345;50.902;6.956;2022-10-23T14:49:36;8.73;;;2.97;;
16468;SDS011;8345;50.902;6.956;2022-10-23T14:52:04;2.90;;;2.57;;
16468;SDS011;8345;50.902;6.956;2022-10-23T14:54:31;5.33;;;2.70;;
16468;SDS011;8345;50.902;6.956;2022-10-23T14:57:00;3.23;;;2.30;;
16468;SDS011;8345;50.902;6.956;2022-10-23T14:59:29;3.77;;;2.40;;
16468;SDS011;8345;50.902;6.956;2022-10-23T15:01:57;3.40;;;2.10;;
16468;SDS011;8345;50.902;6.956;2022-10-23T15:04:25;5.80;;;2.70;;
16468;SDS011;8345;50.902;6.956;2022-10-23T15:06:52;5.70;;;2.90;;
16468;SDS011;8345;50.902;6.956;2022-10-23T15:09:20;3.60;;;2.60;;
16468;SDS011;8345;50.902;6.956;2022-10-23T15:11:47;3.83;;;2.23;;
16468;SDS011;8345;50.902;6.956;2022-10-23T15:14:14;4.20;;;3.03;;